createdAt,value
2019-01-10T00:01:38.007Z,5.13
2019-01-10T00:04:07.701Z,4.30
2019-01-10T00:06:37.461Z,2.90
2019-01-10T00:09:08.185Z,3.57
2019-01-10T00:11:38.072Z,3.53
2019-01-10T00:14:07.982Z,4.90
2019-01-10T00:16:37.584Z,3.20
2019-01-10T00:19:07.273Z,3.37
2019-01-10T00:21:37.033Z,6.53
2019-01-10T00:24:06.653Z,2.40
2019-01-10T00:26:36.352Z,3.03
2019-01-10T00:29:05.973Z,4.80
2019-01-10T00:31:35.578Z,4.40
2019-01-10T00:34:05.185Z,3.40
2019-01-10T00:36:34.794Z,4.90
2019-01-10T00:39:06.849Z,4.97
2019-01-10T00:41:36.754Z,3.20
2019-01-10T00:44:06.544Z,4.83
2019-01-10T00:46:36.155Z,4.53
2019-01-10T00:49:06.107Z,3.50
2019-01-10T00:51:35.784Z,5.00
2019-01-10T00:54:05.592Z,2.93
2019-01-10T00:56:35.197Z,3.23
2019-01-10T00:59:05.151Z,3.77
2019-01-10T01:01:34.761Z,3.40
2019-01-10T01:04:04.761Z,3.77
2019-01-10T01:06:34.423Z,3.33
2019-01-10T01:09:06.209Z,4.80
2019-01-10T01:11:35.882Z,5.07
2019-01-10T01:14:05.605Z,3.87
2019-01-10T01:16:35.302Z,4.63
2019-01-10T01:19:05.432Z,4.23
2019-01-10T01:21:35.070Z,4.60
2019-01-10T01:24:05.074Z,4.27
2019-01-10T01:26:34.749Z,3.50
2019-01-10T01:29:04.771Z,5.57
2019-01-10T01:31:34.381Z,3.53
2019-01-10T01:34:04.425Z,4.60
2019-01-10T01:36:34.034Z,4.50
2019-01-10T01:39:06.090Z,3.17
2019-01-10T01:41:35.803Z,4.30
2019-01-10T01:44:05.965Z,4.67
2019-01-10T01:46:35.652Z,5.27
2019-01-10T01:49:05.792Z,5.07
2019-01-10T01:51:35.829Z,3.63
2019-01-10T01:54:05.605Z,4.53
2019-01-10T01:56:35.244Z,6.20
2019-01-10T01:59:05.138Z,3.03
2019-01-10T02:01:34.801Z,3.43
2019-01-10T02:04:04.778Z,6.83
2019-01-10T02:06:34.397Z,3.60
2019-01-10T02:09:05.577Z,2.97
2019-01-10T02:11:35.341Z,3.70
2019-01-10T02:14:05.108Z,3.97
2019-01-10T02:16:34.713Z,4.03
2019-01-10T02:19:04.482Z,3.30
2019-01-10T02:21:34.258Z,3.27
2019-01-10T02:24:03.946Z,4.80
2019-01-10T02:26:34.595Z,4.57
2019-01-10T02:29:04.304Z,5.27
2019-01-10T02:31:34.293Z,3.23
2019-01-10T02:34:04.145Z,4.93
2019-01-10T02:36:33.828Z,4.60
2019-01-10T02:39:05.040Z,5.40
2019-01-10T02:41:34.977Z,5.37
2019-01-10T02:44:04.763Z,4.80
2019-01-10T02:46:34.633Z,4.60
2019-01-10T02:49:04.577Z,6.30
2019-01-10T02:51:34.238Z,4.67
2019-01-10T02:54:03.881Z,5.90
2019-01-10T02:56:33.775Z,5.10
2019-01-10T02:59:04.012Z,4.53
2019-01-10T03:01:33.938Z,3.70
2019-01-10T03:04:03.909Z,4.70
2019-01-10T03:06:33.504Z,4.83
2019-01-10T03:09:03.118Z,5.30
2019-01-10T03:11:34.494Z,7.83
2019-01-10T03:14:04.615Z,3.90
2019-01-10T03:16:34.229Z,5.63
2019-01-10T03:19:03.996Z,4.10
2019-01-10T03:21:33.592Z,3.80
2019-01-10T03:24:03.209Z,5.00
2019-01-10T03:26:32.809Z,3.57
2019-01-10T03:29:02.493Z,5.03
2019-01-10T03:31:32.585Z,4.67
2019-01-10T03:34:02.522Z,4.43
2019-01-10T03:36:32.132Z,3.97
2019-01-10T03:39:01.741Z,4.83
2019-01-10T03:41:33.298Z,5.03
2019-01-10T03:44:03.176Z,7.17
2019-01-10T03:46:32.789Z,4.83
2019-01-10T03:49:02.665Z,5.97
2019-01-10T03:51:32.315Z,4.67
2019-01-10T03:54:02.262Z,5.23
2019-01-10T03:56:31.865Z,3.87
2019-01-10T03:59:01.482Z,4.80
2019-01-10T04:01:31.096Z,3.40
2019-01-10T04:04:01.066Z,3.03
2019-01-10T04:06:30.740Z,5.47
2019-01-10T04:09:00.440Z,4.50
2019-01-10T04:11:30.445Z,4.53
2019-01-10T04:14:00.057Z,4.93
2019-01-10T04:16:29.655Z,8.23
2019-01-10T04:18:59.348Z,4.90
2019-01-10T04:21:28.960Z,3.70
2019-01-10T04:23:58.575Z,4.37
2019-01-10T04:26:28.168Z,6.20
2019-01-10T04:28:57.777Z,4.80
2019-01-10T04:31:27.481Z,12.93
2019-01-10T04:33:57.168Z,12.53
2019-01-10T04:36:27.114Z,8.77
2019-01-10T04:38:56.801Z,4.33
2019-01-10T04:41:26.537Z,5.20
2019-01-10T04:43:56.289Z,3.97
2019-01-10T04:46:25.979Z,3.70
2019-01-10T04:48:55.651Z,5.80
2019-01-10T04:51:25.615Z,7.50
2019-01-10T04:53:55.333Z,8.97
2019-01-10T04:56:25.378Z,5.80
2019-01-10T04:58:55.073Z,5.17
2019-01-10T05:01:25.224Z,4.47
2019-01-10T05:03:55.015Z,5.80
2019-01-10T05:06:24.796Z,6.17
2019-01-10T05:08:54.855Z,5.23
2019-01-10T05:11:24.560Z,5.53
2019-01-10T05:13:54.258Z,4.87
2019-01-10T05:16:23.958Z,6.00
2019-01-10T05:18:53.753Z,7.30
2019-01-10T05:21:23.813Z,6.10
2019-01-10T05:23:53.545Z,4.50
2019-01-10T05:26:23.256Z,5.10
2019-01-10T05:28:53.001Z,5.50
2019-01-10T05:31:22.997Z,3.93
2019-01-10T05:33:53.003Z,6.03
2019-01-10T05:36:23.066Z,4.03
2019-01-10T05:38:52.807Z,6.73
2019-01-10T05:41:22.497Z,5.83
2019-01-10T05:43:52.449Z,4.27
2019-01-10T05:46:22.223Z,5.73
2019-01-10T05:48:52.215Z,4.07
2019-01-10T05:51:21.908Z,6.70
2019-01-10T05:53:51.596Z,4.53
2019-01-10T05:56:21.415Z,5.57
2019-01-10T05:58:51.135Z,5.27
2019-01-10T06:01:20.899Z,4.73
2019-01-10T06:03:53.503Z,4.77
2019-01-10T06:06:22.420Z,6.20
2019-01-10T06:08:52.156Z,6.27
2019-01-10T06:11:21.929Z,5.90
2019-01-10T06:13:51.636Z,3.50
2019-01-10T06:16:21.495Z,4.60
2019-01-10T06:18:51.259Z,2.90
2019-01-10T06:21:20.945Z,5.50
2019-01-10T06:23:50.812Z,5.40
2019-01-10T06:26:21.654Z,4.23
2019-01-10T06:28:51.621Z,6.20
2019-01-10T06:31:21.308Z,2.87
2019-01-10T06:33:51.460Z,3.37
2019-01-10T06:36:21.480Z,6.53
2019-01-10T06:38:51.173Z,3.50
2019-01-10T06:41:20.787Z,4.40
2019-01-10T06:43:50.658Z,3.93
2019-01-10T06:46:20.420Z,4.33
2019-01-10T06:48:50.028Z,5.17
2019-01-10T06:51:19.877Z,5.80
2019-01-10T06:53:49.776Z,4.23
2019-01-10T06:56:19.628Z,3.43
2019-01-10T06:58:49.478Z,3.97
2019-01-10T07:01:19.341Z,3.70
2019-01-10T07:03:49.009Z,5.33
2019-01-10T07:06:18.633Z,5.30
2019-01-10T07:08:48.469Z,4.83
2019-01-10T07:11:18.412Z,4.20
2019-01-10T07:13:48.302Z,5.13
2019-01-10T07:16:17.922Z,4.50
2019-01-10T07:18:47.598Z,3.43
2019-01-10T07:21:17.213Z,3.73
2019-01-10T07:23:47.753Z,5.23
2019-01-10T07:26:17.398Z,2.87
2019-01-10T07:28:47.252Z,6.43
2019-01-10T07:31:30.201Z,6.10
2019-01-10T07:34:00.717Z,4.23
2019-01-10T07:36:30.405Z,6.93
2019-01-10T07:39:00.038Z,7.73
2019-01-10T07:41:29.890Z,6.87
2019-01-10T07:43:59.674Z,4.73
2019-01-10T07:46:29.370Z,7.60
2019-01-10T07:48:59.000Z,13.90
2019-01-10T07:51:45.398Z,7.20
2019-01-10T07:54:15.068Z,5.13
2019-01-10T07:56:44.727Z,6.60
2019-01-10T07:59:14.425Z,5.80
2019-01-10T08:01:44.462Z,6.63
2019-01-10T08:04:14.250Z,4.53
2019-01-10T08:06:44.196Z,7.90
2019-01-10T08:09:13.855Z,7.30
2019-01-10T08:11:44.055Z,5.97
2019-01-10T08:14:14.069Z,8.20
2019-01-10T08:16:43.725Z,5.90
2019-01-10T08:19:13.657Z,6.03
2019-01-10T08:21:43.507Z,7.43
2019-01-10T08:24:13.408Z,5.10
2019-01-10T08:26:43.021Z,5.80
2019-01-10T08:29:12.727Z,5.60
2019-01-10T08:31:42.372Z,8.57
2019-01-10T08:34:12.132Z,24.30
2019-01-10T08:36:42.030Z,11.30
2019-01-10T08:39:11.879Z,8.57
2019-01-10T08:41:41.587Z,13.80
2019-01-10T08:44:11.525Z,9.40
2019-01-10T08:46:41.201Z,8.53
2019-01-10T08:49:10.837Z,10.30
2019-01-10T08:51:40.725Z,7.57
2019-01-10T08:54:10.366Z,17.57
2019-01-10T08:56:40.141Z,10.50
2019-01-10T08:59:10.233Z,11.03
2019-01-10T09:01:39.857Z,11.07
2019-01-10T09:04:09.599Z,14.47
2019-01-10T09:06:39.484Z,8.73
2019-01-10T09:09:09.904Z,11.43
2019-01-10T09:11:39.529Z,7.87
2019-01-10T09:14:09.379Z,15.33
2019-01-10T09:16:40.037Z,12.97
2019-01-10T09:19:09.914Z,12.17
2019-01-10T09:21:39.616Z,17.53
2019-01-10T09:24:09.312Z,13.37
2019-01-10T09:26:38.929Z,14.23
2019-01-10T09:29:08.539Z,9.73
2019-01-10T09:31:38.208Z,10.37
2019-01-10T09:34:07.928Z,12.13
2019-01-10T09:36:37.685Z,10.40
2019-01-10T09:39:08.704Z,10.57
2019-01-10T09:41:38.577Z,12.23
2019-01-10T09:44:08.342Z,12.30
2019-01-10T09:46:38.046Z,13.47
2019-01-10T09:49:07.832Z,12.17
2019-01-10T09:51:37.485Z,10.80
2019-01-10T09:54:07.450Z,10.97
2019-01-10T09:56:37.639Z,10.03
2019-01-10T09:59:07.493Z,11.43
2019-01-10T10:01:37.268Z,11.73
2019-01-10T10:04:07.105Z,10.13
2019-01-10T10:06:37.082Z,13.60
2019-01-10T10:09:08.459Z,24.73
2019-01-10T10:11:38.173Z,11.77
2019-01-10T10:14:08.668Z,17.07
2019-01-10T10:16:38.331Z,12.60
2019-01-10T10:19:08.372Z,10.30
2019-01-10T10:21:38.346Z,14.20
2019-01-10T10:24:08.436Z,9.07
2019-01-10T10:26:38.375Z,11.47
2019-01-10T10:29:08.044Z,11.60
2019-01-10T10:31:37.793Z,10.60
2019-01-10T10:34:07.526Z,12.10
2019-01-10T10:36:37.301Z,10.43
2019-01-10T10:39:08.905Z,13.90
2019-01-10T10:41:40.570Z,9.83
2019-01-10T10:44:10.692Z,9.63
2019-01-10T10:46:40.493Z,8.93
2019-01-10T10:49:10.500Z,9.67
2019-01-10T10:51:40.201Z,9.13
2019-01-10T10:54:10.000Z,7.57
2019-01-10T10:56:39.743Z,9.00
2019-01-10T10:59:09.464Z,6.60
2019-01-10T11:01:39.347Z,10.50
2019-01-10T11:04:09.230Z,7.43
2019-01-10T11:06:38.995Z,7.87
2019-01-10T11:09:09.760Z,7.37
2019-01-10T11:11:40.596Z,6.77
2019-01-10T11:14:10.223Z,6.77
2019-01-10T11:16:39.829Z,6.07
2019-01-10T11:19:09.598Z,8.73
2019-01-10T11:21:39.309Z,7.63
2019-01-10T11:24:09.286Z,5.50
2019-01-10T11:26:39.250Z,6.00
2019-01-10T11:29:09.221Z,8.87
2019-01-10T11:31:38.876Z,7.30
2019-01-10T11:34:09.593Z,5.53
2019-01-10T11:36:39.349Z,8.13
2019-01-10T11:39:09.552Z,7.60
2019-01-10T11:41:39.201Z,10.87
2019-01-10T11:44:09.443Z,6.13
2019-01-10T11:46:39.085Z,5.67
2019-01-10T11:49:08.866Z,5.83
2019-01-10T11:51:39.222Z,6.13
2019-01-10T11:54:09.375Z,6.93
2019-01-10T11:56:39.050Z,5.73
2019-01-10T11:59:08.969Z,4.97
2019-01-10T12:01:39.084Z,6.43
2019-01-10T12:04:09.277Z,6.73
2019-01-10T12:06:38.929Z,6.47
2019-01-10T12:09:08.691Z,5.87
2019-01-10T12:11:38.490Z,5.90
2019-01-10T12:14:08.621Z,11.13
2019-01-10T12:16:38.500Z,8.83
2019-01-10T12:19:08.259Z,9.33
2019-01-10T12:21:37.997Z,11.07
2019-01-10T12:24:07.719Z,6.67
2019-01-10T12:26:37.371Z,5.73
2019-01-10T12:29:07.200Z,8.33
2019-01-10T12:31:36.953Z,5.73
2019-01-10T12:34:06.599Z,8.23
2019-01-10T12:36:36.606Z,7.23
2019-01-10T12:39:07.840Z,8.00
2019-01-10T12:41:37.829Z,6.97
2019-01-10T12:44:08.071Z,9.30
2019-01-10T12:46:37.970Z,8.87
2019-01-10T12:49:07.687Z,11.17
2019-01-10T12:51:37.428Z,8.33
2019-01-10T12:54:07.067Z,13.67
2019-01-10T12:56:36.843Z,9.63
2019-01-10T12:59:06.478Z,9.47
2019-01-10T13:01:36.555Z,10.03
2019-01-10T13:04:06.596Z,11.53
2019-01-10T13:06:36.285Z,11.80
2019-01-10T13:09:08.124Z,11.33
2019-01-10T13:11:38.938Z,13.87
2019-01-10T13:14:09.015Z,16.67
2019-01-10T13:16:46.849Z,15.77
2019-01-10T13:19:10.241Z,9.27
2019-01-10T13:21:40.177Z,9.73
2019-01-10T13:24:09.800Z,11.97
2019-01-10T13:26:39.586Z,10.83
2019-01-10T13:29:09.533Z,10.53
2019-01-10T13:31:39.340Z,9.87
2019-01-10T13:34:09.169Z,10.67
2019-01-10T13:36:39.084Z,12.03
2019-01-10T13:39:09.790Z,10.23
2019-01-10T13:41:39.433Z,11.17
2019-01-10T13:44:09.289Z,11.47
2019-01-10T13:46:39.988Z,12.97
2019-01-10T13:49:10.095Z,11.20
2019-01-10T13:51:39.719Z,11.17
2019-01-10T13:54:09.507Z,11.63
2019-01-10T13:56:39.495Z,11.67
2019-01-10T13:59:09.149Z,9.37
2019-01-10T14:01:38.787Z,10.77
2019-01-10T14:04:08.539Z,11.97
2019-01-10T14:06:38.436Z,13.90
2019-01-10T14:09:09.787Z,8.40
2019-01-10T14:11:39.433Z,9.83
2019-01-10T14:14:09.131Z,9.57
2019-01-10T14:16:38.901Z,14.33
2019-01-10T14:19:08.785Z,11.17
2019-01-10T14:21:38.462Z,12.53
2019-01-10T14:24:08.213Z,13.30
2019-01-10T14:26:38.235Z,11.10
2019-01-10T14:29:08.027Z,13.63
2019-01-10T14:31:37.849Z,14.23
2019-01-10T14:34:14.149Z,12.90
2019-01-10T14:36:40.946Z,14.03
2019-01-10T14:39:11.240Z,14.53
2019-01-10T14:41:40.951Z,13.10
2019-01-10T14:44:10.709Z,16.50
2019-01-10T14:46:40.564Z,13.97
2019-01-10T14:49:10.249Z,10.97
2019-01-10T14:51:41.197Z,12.57
2019-01-10T14:54:10.853Z,12.37
2019-01-10T14:56:40.806Z,11.67
2019-01-10T14:59:10.527Z,12.10
2019-01-10T15:01:40.529Z,12.27
2019-01-10T15:04:10.922Z,9.00
2019-01-10T15:06:40.724Z,7.20
2019-01-10T15:09:10.408Z,12.60
2019-01-10T15:11:40.073Z,11.13
2019-01-10T15:14:16.049Z,9.90
2019-01-10T15:16:42.012Z,16.07
2019-01-10T15:19:11.850Z,10.80
2019-01-10T15:21:41.762Z,14.77
2019-01-10T15:24:12.322Z,12.10
2019-01-10T15:26:42.090Z,11.23
2019-01-10T15:29:11.746Z,10.07
2019-01-10T15:31:41.424Z,11.23
2019-01-10T15:34:11.329Z,10.23
2019-01-10T15:36:40.960Z,11.80
2019-01-10T15:39:10.675Z,10.33
2019-01-10T15:41:40.477Z,10.97
2019-01-10T15:44:10.526Z,14.17
2019-01-10T15:46:40.211Z,12.17
2019-01-10T15:49:09.953Z,8.20
2019-01-10T15:51:39.678Z,10.80
2019-01-10T15:54:09.477Z,13.33
2019-01-10T15:56:39.159Z,12.63
2019-01-10T15:59:08.921Z,15.17
2019-01-10T16:01:38.817Z,13.23
2019-01-10T16:04:08.717Z,10.03
2019-01-10T16:06:38.419Z,13.30
2019-01-10T16:09:09.608Z,11.97
2019-01-10T16:11:39.299Z,15.57
2019-01-10T16:14:09.013Z,13.07
2019-01-10T16:16:39.303Z,15.23
2019-01-10T16:19:09.029Z,18.90
2019-01-10T16:21:38.710Z,15.53
2019-01-10T16:24:08.460Z,16.20
2019-01-10T16:26:38.195Z,17.13
2019-01-10T16:29:07.971Z,17.10
2019-01-10T16:31:37.673Z,19.77
2019-01-10T16:34:07.375Z,16.50
2019-01-10T16:36:37.046Z,15.97
2019-01-10T16:39:08.419Z,16.43
2019-01-10T16:41:38.074Z,15.47
2019-01-10T16:44:07.863Z,15.37
2019-01-10T16:46:37.519Z,14.00
2019-01-10T16:49:07.485Z,20.60
2019-01-10T16:51:38.464Z,16.77
2019-01-10T16:54:08.152Z,14.07
2019-01-10T16:56:37.789Z,16.70
2019-01-10T16:59:07.822Z,16.40
2019-01-10T17:01:37.979Z,17.77
2019-01-10T17:04:07.645Z,16.17
2019-01-10T17:06:37.622Z,15.83
2019-01-10T17:09:08.711Z,16.80
2019-01-10T17:11:38.478Z,18.77
2019-01-10T17:14:08.193Z,22.47
2019-01-10T17:16:38.863Z,27.77
2019-01-10T17:19:08.683Z,27.33
2019-01-10T17:21:38.429Z,20.17
2019-01-10T17:24:08.170Z,20.60
2019-01-10T17:26:37.787Z,22.97
2019-01-10T17:29:08.300Z,24.87
2019-01-10T17:31:38.421Z,21.53
2019-01-10T17:34:08.081Z,21.00
2019-01-10T17:36:37.676Z,20.43
2019-01-10T17:39:09.035Z,22.97
2019-01-10T17:41:39.405Z,26.67
2019-01-10T17:44:09.098Z,23.77
2019-01-10T17:46:38.701Z,25.00
2019-01-10T17:49:08.325Z,23.17
2019-01-10T17:51:38.264Z,24.47
2019-01-10T17:54:08.239Z,21.80
2019-01-10T17:56:37.955Z,24.97
2019-01-10T17:59:07.581Z,19.87
2019-01-10T18:01:37.185Z,22.20
2019-01-10T18:04:07.028Z,25.13
2019-01-10T18:06:36.636Z,23.23
2019-01-10T18:09:08.373Z,22.10
2019-01-10T18:11:38.053Z,21.10
2019-01-10T18:14:07.748Z,18.60
2019-01-10T18:16:37.710Z,15.03
2019-01-10T18:19:07.333Z,20.87
2019-01-10T18:21:37.423Z,23.27
2019-01-10T18:24:07.506Z,17.13
2019-01-10T18:26:37.122Z,20.07
2019-01-10T18:29:06.920Z,20.33
2019-01-10T18:31:36.698Z,19.90
2019-01-10T18:34:06.576Z,16.67
2019-01-10T18:36:36.523Z,17.50
2019-01-10T18:39:07.898Z,21.07
2019-01-10T18:41:37.513Z,18.67
2019-01-10T18:44:07.145Z,18.97
2019-01-10T18:46:36.832Z,17.00
2019-01-10T18:49:06.834Z,18.20
2019-01-10T18:51:36.453Z,17.93
2019-01-10T18:54:06.393Z,15.57
2019-01-10T18:56:36.093Z,22.13
2019-01-10T18:59:05.776Z,15.37
2019-01-10T19:01:35.402Z,14.13
2019-01-10T19:04:05.104Z,15.77
2019-01-10T19:06:34.792Z,16.27
2019-01-10T19:09:07.476Z,19.37
2019-01-10T19:11:37.365Z,14.43
2019-01-10T19:14:07.272Z,16.63
2019-01-10T19:16:36.969Z,19.43
2019-01-10T19:19:06.988Z,17.47
2019-01-10T19:21:36.613Z,18.83
2019-01-10T19:24:06.404Z,15.50
2019-01-10T19:26:36.130Z,18.43
2019-01-10T19:29:05.890Z,17.43
2019-01-10T19:31:35.513Z,18.37
2019-01-10T19:34:05.632Z,18.77
2019-01-10T19:36:35.384Z,15.37
2019-01-10T19:39:07.809Z,17.33
2019-01-10T19:41:37.570Z,20.97
2019-01-10T19:44:07.229Z,18.73
2019-01-10T19:46:36.953Z,17.70
2019-01-10T19:49:06.998Z,17.63
2019-01-10T19:51:36.989Z,20.10
2019-01-10T19:54:06.669Z,19.80
2019-01-10T19:56:36.385Z,21.90
2019-01-10T19:59:06.086Z,19.77
2019-01-10T20:01:37.725Z,21.80
2019-01-10T20:04:07.601Z,21.87
2019-01-10T20:06:37.249Z,22.23
2019-01-10T20:09:09.154Z,26.70
2019-01-10T20:11:39.207Z,24.00
2019-01-10T20:14:09.171Z,23.30
2019-01-10T20:16:38.848Z,24.00
2019-01-10T20:19:09.022Z,26.87
2019-01-10T20:21:38.949Z,28.30
2019-01-10T20:24:08.572Z,28.37
2019-01-10T20:26:38.415Z,28.97
2019-01-10T20:29:08.473Z,29.30
2019-01-10T20:31:38.084Z,26.83
2019-01-10T20:34:07.925Z,29.40
2019-01-10T20:36:37.898Z,31.77
2019-01-10T20:39:08.693Z,33.50
2019-01-10T20:41:38.478Z,32.30
2019-01-10T20:44:08.176Z,34.47
2019-01-10T20:46:38.202Z,33.67
2019-01-10T20:49:07.829Z,35.60
2019-01-10T20:51:37.517Z,38.40
2019-01-10T20:54:07.302Z,32.20
2019-01-10T20:56:37.240Z,36.60
2019-01-10T20:59:06.942Z,36.10
2019-01-10T21:01:36.661Z,31.50
2019-01-10T21:04:06.389Z,30.90
2019-01-10T21:06:36.856Z,34.20
2019-01-10T21:09:13.009Z,31.37
2019-01-10T21:11:39.814Z,33.23
2019-01-10T21:14:10.587Z,36.50
2019-01-10T21:16:40.748Z,40.93
2019-01-10T21:19:10.553Z,37.03
2019-01-10T21:21:40.183Z,38.30
2019-01-10T21:24:09.977Z,38.63
2019-01-10T21:26:39.789Z,45.00
2019-01-10T21:29:09.600Z,44.77
2019-01-10T21:31:39.679Z,49.70
2019-01-10T21:34:09.350Z,47.87
2019-01-10T21:36:38.988Z,54.27
2019-01-10T21:39:08.931Z,39.73
2019-01-10T21:41:38.749Z,37.53
2019-01-10T21:44:08.459Z,38.00
2019-01-10T21:46:38.442Z,37.57
2019-01-10T21:49:08.179Z,37.40
2019-01-10T21:51:37.924Z,33.67
2019-01-10T21:54:09.057Z,32.70
2019-01-10T21:56:39.262Z,31.73
2019-01-10T21:59:09.164Z,31.57
2019-01-10T22:01:38.925Z,37.97
2019-01-10T22:04:08.597Z,29.30
2019-01-10T22:06:38.334Z,31.67
2019-01-10T22:09:08.500Z,34.30
2019-01-10T22:11:38.170Z,36.53
2019-01-10T22:14:08.177Z,37.30
2019-01-10T22:16:37.860Z,34.50
2019-01-10T22:19:09.354Z,41.47
2019-01-10T22:21:39.265Z,33.73
2019-01-10T22:24:08.915Z,38.53
2019-01-10T22:26:38.589Z,40.43
2019-01-10T22:29:08.349Z,40.73
2019-01-10T22:31:38.290Z,39.93
2019-01-10T22:34:08.042Z,37.73
2019-01-10T22:36:37.725Z,36.17
2019-01-10T22:39:08.605Z,38.53
2019-01-10T22:41:38.576Z,36.17
2019-01-10T22:44:08.639Z,34.97
2019-01-10T22:46:38.407Z,32.67
2019-01-10T22:49:08.100Z,31.27
2019-01-10T22:51:37.826Z,33.03
2019-01-10T22:54:07.621Z,29.23
2019-01-10T22:56:37.291Z,31.70
2019-01-10T22:59:07.112Z,31.47
2019-01-10T23:01:49.304Z,32.67
2019-01-10T23:04:27.624Z,34.47
2019-01-10T23:06:57.515Z,29.80
2019-01-10T23:09:28.993Z,31.00
2019-01-10T23:11:58.671Z,32.43
2019-01-10T23:14:28.373Z,36.47
2019-01-10T23:16:58.154Z,33.30
2019-01-10T23:19:28.198Z,36.70
2019-01-10T23:22:09.084Z,38.13
2019-01-10T23:24:38.794Z,39.47
2019-01-10T23:27:08.512Z,42.13
2019-01-10T23:29:38.343Z,37.90
2019-01-10T23:32:13.082Z,40.17
2019-01-10T23:34:52.625Z,42.70
2019-01-10T23:37:26.762Z,43.83
2019-01-10T23:39:57.153Z,37.37
2019-01-10T23:42:26.939Z,41.50
2019-01-10T23:44:56.637Z,43.27
2019-01-10T23:47:26.352Z,42.50
2019-01-10T23:49:56.085Z,46.23
2019-01-10T23:52:26.011Z,40.50
2019-01-10T23:54:56.108Z,41.60
2019-01-10T23:57:26.154Z,45.90
2019-01-10T23:59:55.888Z,43.50
